Language selection

Weather shortcuts

Queen Charlotte Sound - eastern half: Past 24 Hour Conditions

 

South Brooks - 46132

03:00 PM PST 27 February 2024Buoy position: 49.46N 127.53W
Disclaimer

This table is a summary of hourly weather conditions for the past 24 hours.
Please note that these observations might not always be representative of weather conditions over their associated marine area.

Date / Time
(PST)
Wind(knots) Wave height(m) Wave period(s) Pressure(kPa) Air tempC) Water tempC)
27 February 2024
15:00 ESE 31 gusts 39 3.14 7.4 100.6 7 9
14:00 SE 31 gusts 38 3.05 6.1 100.7 8 9
13:00 SE 28 gusts 35 2.88 10.5 100.8 7 9
12:00 SE 29 gusts 36 2.47 11.1 101.0 7 9
11:00 SE 24 gusts 31 2.57 5.4 101.1 7 9
10:00 SE 27 gusts 33 2.48 10.0 101.1 6 9
9:00 ESE 24 gusts 29 2.33 10.0 101.2 5 9
8:00 SE 21 gusts 27 2.49 11.1 101.3 6 9
7:00 SE 17 gusts 23 2.57 11.1 101.3 6 8
6:00 SE 13 gusts 19 2.98 11.8 101.4 6 8
5:00 ESE 10 gusts 15 2.93 11.8 101.4 6 8
4:00 E 6 gusts 12 3.55 11.1 101.5 6 8
3:00 ENE 4 gusts 8 3.63 11.8 101.5 5 8
2:00 NNE 7 gusts 10 3.69 12.5 101.5 5 8
1:00 N 9 gusts 12 4.13 12.5 101.5 6 8
0:00 N 12 gusts 18 4.51 11.8 101.5 5 8
26 February 2024
23:00 NNW 13 gusts 19 3.98 13.3 101.5 6 9
22:00 NNW 17 gusts 22 4.60 13.3 101.5 6 9
21:00 NNW 18 gusts 24 4.45 13.3 101.5 6 9
20:00 NW 21 gusts 26 4.85 13.3 101.5 6 9
19:00 NNW 21 gusts 27 4.84 12.5 101.5 6 9
18:00 NW 23 gusts 31 4.53 13.3 101.5 6 9
17:00 NNW 24 gusts 30 5.04 13.3 101.4 6 9
16:00 N/A N/A N/A N/A N/A N/A
15:00 NW 26 gusts 32 5.32 14.3 101.3 6 9

Zoom-in to make a selection

Map of Pacific - South Coast marine weather areas South Nomad - 46036 Sentry Shoal - 46131 South Brooks - 46132 Halibut Bank - 46146 South Moresby - 46147 South Hecate Strait - 46185 West Sea Otter - 46204 La Perouse Bank - 46206 East Dellwood - 46207 Georgia Strait - 46303 English Bay – 46304 Discovery Island Esquimalt Harbour Kelp Reefs Malahat Race Rocks Lightstation Saturna Island Sheringham Point University of Victoria Victoria Gonzales Victoria Int'l Airport Ballenas Islands Campbell River Airport Comox Airport Entrance Island Fanny Island Nanaimo Airport Port Hardy Airport Sisters Islets Estevan Point Port Alberni Sartine Island Solander Island Tofino Airport Grief Point Howe Sound - Pam Rocks Powell River Airport Sechelt Squamish Airport Cape St.James Bella Bella Airport Bella Coola Airport Cathedral Point Herbert Island Point Atkinson Sand Heads Lightstation Tsawwassen Ferry Terminal Vancouver Int'l Airport Vancouver Harbour West Vancouver
Legend:
buoy Buoy
land station Land Station

Pacific - South Coast Area

Another Region

Date modified: